Aguada De Pasajeros, Cuba

9:23 AM CDT on May 23, 2015 (GMT -0400)
Jaime Gonzalez | | Change Station
CLOSE
Current Station
Airport
Location: Cienfuegos,
Elevation: 128 ft
Nearby Weather Stations

Elev 128 ft 22.15 °N, 80.41 °W | Updated 25 minutes ago

Partly Cloudy
Partly Cloudy
82 °F
Feels Like 88 °F
N
15
Wind Variable Wind from East
Gusts mph

Today
High -- | Low -- °F
--% Chance of Precip.
Yesterday
High -- | Low -- °F
Precip. -- in
6:40 AM 7:59 PM
Waxing Crescent, 30% visible
Pressure 30.12 in
Visibility -9999.0 miles
Clouds
Heat Index 88 °F
Dew Point 73 °F
Humidity 74%
Rainfall 0.00 in
Snow Depth Not available.
UV Not available.
Pollen Not available.
Air Quality Not available.
Flu Activity Not available.
METAR MUCF 231258Z AUTO 08013KT 050V120 28/23 Q1020

More Conditions Fewer Conditions

Pressure 30.12 in
Visibility -9999.0 miles
Clouds
Heat Index 88 °F
Dew Point 73 °F
Humidity 74%
Rainfall 0.00 in
Snow Depth Not available.
UV Not available.
Pollen Not available.
Air Quality Not available.
Flu Activity Not available.
METAR MUCF 231258Z AUTO 08013KT 050V120 28/23 Q1020

More Conditions Fewer Conditions

10-Day Weather Forecast

Almanac

Astronomy

May. 23, 2015 Rise Set
Actual Time
Civil Twilight
Nautical Twilight
Astronomical Twilight
Moon
Length of Visible Light
Length of Day
Tomorrow will be .
, % of the Moon is Illuminated

Today's Extremes

Country Highs Country Lows

Community

WunderPhotos

Upload Photos

1,823,458 photos uploaded!

WunderBlogs® & News

Nearby

Air Quality

  Air Quality AQ Index Pollutant
Not available.

Snow Depth

Station Depth Elevation

Earthquake Activity

City Distance Mag. Time & Date
Minimum magnitude displayed is 2.5.

Coastal Water Temperatures

Place Temperature

Stations

Nearby Weather Stations

Station Location Temp. Windchill Dew Point Humidity Wind Precip. Elev Updated Type